createdAt,value
2017-09-11T00:00:47.248Z,8.80
2017-09-11T00:01:47.047Z,7.30
2017-09-11T00:02:47.158Z,7.20
2017-09-11T00:03:47.113Z,6.40
2017-09-11T00:04:47.135Z,6.20
2017-09-11T00:05:47.027Z,7.70
2017-09-11T00:06:47.040Z,6.50
2017-09-11T00:07:46.994Z,5.00
2017-09-11T00:08:46.955Z,5.10
2017-09-11T00:09:46.995Z,5.40
2017-09-11T00:10:47.012Z,7.40
2017-09-11T00:11:46.773Z,9.20
2017-09-11T00:12:46.679Z,8.50
2017-09-11T00:13:46.749Z,7.70
2017-09-11T00:14:46.816Z,5.40
2017-09-11T00:15:47.761Z,3.90
2017-09-11T00:16:46.683Z,7.30
2017-09-11T00:17:46.685Z,8.90
2017-09-11T00:18:46.784Z,9.40
2017-09-11T00:21:19.127Z,3.50
2017-09-11T00:22:18.774Z,6.30
2017-09-11T00:23:18.457Z,7.10
2017-09-11T00:24:18.434Z,7.30
2017-09-11T00:25:18.500Z,4.90
2017-09-11T00:26:18.325Z,5.90
2017-09-11T00:27:18.674Z,7.80
2017-09-11T00:28:18.436Z,4.60
2017-09-11T00:29:18.477Z,6.20
2017-09-11T00:30:18.477Z,6.70
2017-09-11T00:31:18.549Z,7.50
2017-09-11T00:32:18.428Z,6.00
2017-09-11T00:33:18.451Z,5.20
2017-09-11T00:34:18.497Z,6.10
2017-09-11T00:35:18.368Z,10.60
2017-09-11T00:36:18.138Z,5.40
2017-09-11T00:37:18.580Z,4.90
2017-09-11T00:38:17.944Z,8.50
2017-09-11T00:39:18.207Z,7.60
2017-09-11T00:40:17.977Z,6.80
2017-09-11T00:42:50.645Z,6.40
2017-09-11T00:43:50.163Z,7.00
2017-09-11T00:44:50.005Z,5.90
2017-09-11T00:45:50.045Z,4.90
2017-09-11T00:46:50.118Z,4.80
2017-09-11T00:47:49.895Z,6.20
2017-09-11T00:48:49.930Z,6.10
2017-09-11T00:49:49.973Z,6.50
2017-09-11T00:50:49.793Z,7.10
2017-09-11T00:51:49.987Z,6.20
2017-09-11T00:52:49.767Z,4.20
2017-09-11T00:53:49.794Z,3.40
2017-09-11T00:54:49.729Z,9.20
2017-09-11T00:55:49.707Z,4.20
2017-09-11T00:56:49.617Z,7.20
2017-09-11T00:57:49.657Z,7.20
2017-09-11T00:58:49.779Z,4.90
2017-09-11T00:59:49.502Z,5.20
2017-09-11T01:00:49.482Z,8.00
2017-09-11T01:01:49.599Z,6.20
2017-09-11T01:04:21.939Z,4.70
2017-09-11T01:05:21.761Z,5.40
2017-09-11T01:06:21.890Z,4.00
2017-09-11T01:07:21.494Z,6.00
2017-09-11T01:08:21.448Z,6.90
2017-09-11T01:09:21.318Z,5.70
2017-09-11T01:10:21.337Z,4.10
2017-09-11T01:11:21.466Z,2.50
2017-09-11T01:12:21.387Z,4.80
2017-09-11T01:13:21.337Z,3.40
2017-09-11T01:14:21.338Z,2.40
2017-09-11T01:15:21.346Z,6.00
2017-09-11T01:16:21.404Z,4.60
2017-09-11T01:17:21.157Z,3.10
2017-09-11T01:18:21.333Z,4.90
2017-09-11T01:19:21.091Z,4.80
2017-09-11T01:20:21.094Z,6.30
2017-09-11T01:21:21.200Z,3.50
2017-09-11T01:22:22.380Z,3.40
2017-09-11T01:23:20.899Z,2.10
2017-09-11T01:25:53.443Z,3.90
2017-09-11T01:26:53.372Z,2.90
2017-09-11T01:27:53.254Z,3.30
2017-09-11T01:28:52.976Z,5.30
2017-09-11T01:29:52.967Z,1.60
2017-09-11T01:30:52.830Z,4.40
2017-09-11T01:31:52.989Z,4.00
2017-09-11T01:32:52.827Z,4.80
2017-09-11T01:33:52.766Z,2.80
2017-09-11T01:34:52.857Z,2.50
2017-09-11T01:35:52.885Z,3.30
2017-09-11T01:36:52.888Z,5.00
2017-09-11T01:37:52.679Z,3.60
2017-09-11T01:38:52.852Z,3.30
2017-09-11T01:39:52.863Z,2.90
2017-09-11T01:40:52.771Z,3.50
2017-09-11T01:41:52.765Z,3.00
2017-09-11T01:42:52.617Z,2.40
2017-09-11T01:43:52.460Z,3.20
2017-09-11T01:44:52.688Z,3.00
2017-09-11T01:47:25.154Z,5.10
2017-09-11T01:48:24.623Z,3.00
2017-09-11T01:49:24.439Z,2.30
2017-09-11T01:50:24.536Z,3.30
2017-09-11T01:51:24.370Z,2.40
2017-09-11T01:52:24.355Z,6.90
2017-09-11T01:53:24.320Z,2.40
2017-09-11T01:54:24.323Z,2.00
2017-09-11T01:55:24.257Z,1.10
2017-09-11T01:56:24.275Z,2.90
2017-09-11T01:57:24.268Z,3.20
2017-09-11T01:58:24.204Z,3.10
2017-09-11T01:59:24.178Z,2.50
2017-09-11T02:00:24.098Z,4.00
2017-09-11T02:01:24.107Z,3.10
2017-09-11T02:02:24.108Z,2.20
2017-09-11T02:03:23.993Z,3.00
2017-09-11T02:04:24.247Z,3.50
2017-09-11T02:05:24.521Z,2.20
2017-09-11T02:06:23.877Z,3.90
2017-09-11T02:08:56.541Z,3.50
2017-09-11T02:09:56.054Z,5.80
2017-09-11T02:10:55.950Z,4.30
2017-09-11T02:11:55.849Z,3.00
2017-09-11T02:12:55.923Z,4.50
2017-09-11T02:13:55.914Z,5.20
2017-09-11T02:14:55.782Z,2.10
2017-09-11T02:15:55.723Z,1.60
2017-09-11T02:16:55.770Z,3.00
2017-09-11T02:17:55.729Z,4.60
2017-09-11T02:18:55.809Z,3.20
2017-09-11T02:19:55.855Z,3.00
2017-09-11T02:20:55.719Z,2.30
2017-09-11T02:21:55.743Z,2.90
2017-09-11T02:22:55.652Z,2.00
2017-09-11T02:23:55.722Z,1.20
2017-09-11T02:24:55.893Z,4.20
2017-09-11T02:25:56.065Z,1.80
2017-09-11T02:26:55.978Z,4.10
2017-09-11T02:27:55.595Z,2.00
2017-09-11T02:30:28.158Z,2.00
2017-09-11T02:31:27.397Z,2.90
2017-09-11T02:32:27.464Z,3.70
2017-09-11T02:33:27.569Z,1.90
2017-09-11T02:34:27.480Z,2.70
2017-09-11T02:35:27.387Z,3.00
2017-09-11T02:36:27.264Z,2.50
2017-09-11T02:37:27.407Z,4.70
2017-09-11T02:38:27.271Z,2.30
2017-09-11T02:39:27.368Z,3.60
2017-09-11T02:40:27.279Z,2.20
2017-09-11T02:41:27.175Z,2.90
2017-09-11T02:42:26.830Z,1.20
2017-09-11T02:43:27.302Z,1.60
2017-09-11T02:44:27.137Z,4.30
2017-09-11T02:45:26.992Z,1.10
2017-09-11T02:46:27.068Z,1.30
2017-09-11T02:47:26.873Z,1.70
2017-09-11T02:48:26.943Z,2.50
2017-09-11T02:49:26.920Z,1.70
2017-09-11T02:52:50.687Z,1.80
2017-09-11T02:53:50.487Z,1.00
2017-09-11T02:54:50.249Z,1.70
2017-09-11T02:55:51.109Z,2.30
2017-09-11T02:56:49.927Z,2.80
2017-09-11T02:57:49.982Z,3.50
2017-09-11T02:58:49.943Z,2.20
2017-09-11T02:59:49.803Z,2.00
2017-09-11T03:00:49.929Z,4.80
2017-09-11T03:01:49.861Z,3.60
2017-09-11T03:02:49.897Z,1.60
2017-09-11T03:03:49.813Z,1.90
2017-09-11T03:04:50.001Z,1.50
2017-09-11T03:05:49.701Z,5.20
2017-09-11T03:06:50.011Z,1.50
2017-09-11T03:07:49.808Z,2.40
2017-09-11T03:08:49.744Z,2.40
2017-09-11T03:09:49.858Z,3.80
2017-09-11T03:10:49.865Z,1.90
2017-09-11T03:11:49.758Z,1.90
2017-09-11T03:14:21.958Z,5.10
2017-09-11T03:15:21.708Z,1.80
2017-09-11T03:16:21.492Z,0.80
2017-09-11T03:17:21.390Z,1.20
2017-09-11T03:18:21.758Z,2.80
2017-09-11T03:19:21.530Z,1.40
2017-09-11T03:20:21.368Z,1.90
2017-09-11T03:21:21.559Z,1.40
2017-09-11T03:22:21.601Z,2.30
2017-09-11T03:23:21.315Z,1.10
2017-09-11T03:24:21.435Z,2.00
2017-09-11T03:25:21.278Z,3.30
2017-09-11T03:26:21.434Z,1.10
2017-09-11T03:27:21.188Z,3.50
2017-09-11T03:28:21.423Z,2.70
2017-09-11T03:29:21.458Z,1.50
2017-09-11T03:30:22.041Z,2.20
2017-09-11T03:31:21.557Z,3.40
2017-09-11T03:32:21.287Z,1.60
2017-09-11T03:33:21.003Z,1.10
2017-09-11T03:35:53.453Z,5.20
2017-09-11T03:36:53.253Z,2.10
2017-09-11T03:37:53.098Z,0.70
2017-09-11T03:38:53.095Z,1.10
2017-09-11T03:39:53.136Z,2.60
2017-09-11T03:40:52.910Z,4.20
2017-09-11T03:41:53.008Z,4.90
2017-09-11T03:42:52.951Z,1.10
2017-09-11T03:43:52.835Z,2.10
2017-09-11T03:44:52.908Z,3.20
2017-09-11T03:45:52.997Z,0.70
2017-09-11T03:46:52.906Z,1.00
2017-09-11T03:47:52.669Z,1.20
2017-09-11T03:48:52.805Z,2.70
2017-09-11T03:49:52.909Z,2.60
2017-09-11T03:50:53.042Z,2.60
2017-09-11T03:51:52.896Z,4.70
2017-09-11T03:52:52.577Z,1.30
2017-09-11T03:53:52.485Z,1.40
2017-09-11T03:54:52.547Z,2.10
2017-09-11T03:57:25.236Z,2.60
2017-09-11T03:58:24.438Z,2.50
2017-09-11T03:59:24.744Z,0.80
2017-09-11T04:00:24.736Z,3.00
2017-09-11T04:01:24.483Z,2.10
2017-09-11T04:02:24.540Z,1.30
2017-09-11T04:03:24.360Z,2.40
2017-09-11T04:04:24.738Z,1.40
2017-09-11T04:05:24.583Z,3.70
2017-09-11T04:06:24.410Z,2.40
2017-09-11T04:07:24.384Z,2.60
2017-09-11T04:08:24.327Z,1.80
2017-09-11T04:09:24.473Z,2.10
2017-09-11T04:10:24.422Z,4.60
2017-09-11T04:11:24.276Z,1.00
2017-09-11T04:12:24.335Z,1.50
2017-09-11T04:13:24.488Z,2.80
2017-09-11T04:14:24.073Z,0.70
2017-09-11T04:15:24.268Z,3.70
2017-09-11T04:16:23.995Z,1.20
2017-09-11T04:18:56.574Z,2.20
2017-09-11T04:19:56.087Z,2.30
2017-09-11T04:20:56.030Z,2.50
2017-09-11T04:21:56.020Z,1.20
2017-09-11T04:22:56.105Z,3.50
2017-09-11T04:23:56.552Z,3.20
2017-09-11T04:24:55.999Z,1.70
2017-09-11T04:25:56.069Z,2.70
2017-09-11T04:27:55.761Z,4.70
2017-09-11T04:28:56.007Z,2.30
2017-09-11T04:29:56.066Z,2.60
2017-09-11T04:30:55.737Z,1.90
2017-09-11T04:31:54.579Z,2.30
2017-09-11T04:32:55.827Z,1.80
2017-09-11T04:33:56.080Z,2.30
2017-09-11T04:34:55.743Z,1.80
2017-09-11T04:35:55.765Z,2.50
2017-09-11T04:36:55.571Z,2.80
2017-09-11T04:37:55.646Z,1.70
2017-09-11T04:40:28.413Z,4.70
2017-09-11T04:41:27.577Z,6.30
2017-09-11T04:42:27.587Z,6.30
2017-09-11T04:43:27.341Z,7.30
2017-09-11T04:44:27.569Z,4.10
2017-09-11T04:45:27.544Z,8.00
2017-09-11T04:46:27.495Z,7.30
2017-09-11T04:47:26.189Z,5.20
2017-09-11T04:48:27.369Z,9.00
2017-09-11T04:49:27.265Z,8.50
2017-09-11T04:50:27.393Z,5.90
2017-09-11T04:51:27.369Z,6.10
2017-09-11T04:52:25.960Z,2.70
2017-09-11T04:53:27.308Z,8.20
2017-09-11T04:54:27.385Z,11.20
2017-09-11T04:55:27.360Z,8.30
2017-09-11T04:56:27.453Z,8.30
2017-09-11T04:57:27.506Z,13.90
2017-09-11T04:58:28.276Z,14.40
2017-09-11T04:59:27.065Z,11.70
2017-09-11T05:01:59.762Z,8.50
2017-09-11T05:03:00.103Z,6.30
2017-09-11T05:03:59.038Z,8.80
2017-09-11T05:04:59.174Z,19.40
2017-09-11T05:05:58.875Z,16.10
2017-09-11T05:06:59.340Z,12.80
2017-09-11T05:07:59.193Z,15.40
2017-09-11T05:08:59.112Z,11.30
2017-09-11T05:09:59.065Z,12.60
2017-09-11T05:10:58.908Z,13.20
2017-09-11T05:11:59.373Z,8.70
2017-09-11T05:12:59.024Z,13.40
2017-09-11T05:13:58.832Z,9.70
2017-09-11T05:14:58.949Z,14.80
2017-09-11T05:15:58.779Z,18.60
2017-09-11T05:16:58.831Z,13.40
2017-09-11T05:17:58.946Z,18.00
2017-09-11T05:18:59.185Z,18.30
2017-09-11T05:19:58.556Z,17.80
2017-09-11T12:53:40.694Z,20.30
2017-09-11T12:55:34.006Z,18.40
2017-09-11T12:56:33.972Z,29.60
2017-09-11T12:57:33.947Z,37.70
2017-09-11T12:58:33.921Z,15.20
2017-09-11T12:59:33.896Z,14.90
2017-09-11T13:00:33.871Z,35.90
2017-09-11T13:01:33.846Z,12.80
2017-09-11T13:02:33.822Z,16.60
2017-09-11T13:03:33.799Z,15.70
2017-09-11T13:04:33.777Z,13.40
2017-09-11T13:05:33.755Z,11.10
2017-09-11T13:06:33.732Z,13.30
2017-09-11T13:07:33.712Z,15.60
2017-09-11T13:08:33.691Z,13.00
2017-09-11T13:09:33.671Z,10.90
2017-09-11T13:10:33.651Z,12.10
2017-09-11T13:11:34.030Z,11.60
2017-09-11T13:12:33.619Z,10.50
2017-09-11T13:13:33.589Z,11.20
2017-09-11T13:14:33.569Z,9.80
2017-09-11T13:15:33.551Z,10.70
2017-09-11T13:16:33.527Z,13.00
2017-09-11T13:17:33.508Z,15.70
2017-09-11T13:18:33.487Z,13.20
2017-09-11T13:19:33.468Z,11.70
2017-09-11T13:20:33.447Z,12.80
2017-09-11T13:21:33.428Z,17.10
2017-09-11T13:22:33.405Z,11.50
2017-09-11T13:23:33.387Z,12.80
2017-09-11T13:24:33.367Z,12.20
2017-09-11T13:25:33.345Z,14.60
2017-09-11T13:26:33.327Z,12.40
2017-09-11T13:27:33.306Z,11.00
2017-09-11T13:28:33.286Z,8.90
2017-09-11T13:29:33.266Z,10.80
2017-09-11T13:30:33.245Z,10.70
2017-09-11T13:31:33.225Z,10.40
2017-09-11T13:32:33.206Z,9.50
2017-09-11T13:33:33.188Z,14.20
2017-09-11T13:34:33.168Z,8.00
2017-09-11T13:35:33.150Z,7.40
2017-09-11T13:36:33.131Z,8.40
2017-09-11T13:37:33.113Z,10.00
2017-09-11T13:38:33.097Z,11.10
2017-09-11T13:39:33.084Z,8.90
2017-09-11T13:40:33.059Z,10.60
2017-09-11T13:41:33.050Z,9.60
2017-09-11T13:42:33.026Z,8.30
2017-09-11T13:43:33.010Z,12.10
2017-09-11T13:44:32.991Z,12.80
2017-09-11T13:45:32.973Z,13.20
2017-09-11T13:46:32.957Z,12.30
2017-09-11T13:47:32.947Z,12.80
2017-09-11T13:48:32.922Z,12.20
2017-09-11T13:49:32.904Z,12.10
2017-09-11T13:50:32.891Z,8.00
2017-09-11T13:51:32.872Z,13.50
2017-09-11T13:52:32.853Z,9.80
2017-09-11T13:53:32.835Z,9.70
2017-09-11T13:54:32.817Z,10.40
2017-09-11T13:55:32.799Z,11.40
2017-09-11T13:56:32.781Z,7.80
2017-09-11T13:57:32.763Z,8.40
2017-09-11T13:58:32.745Z,13.80
2017-09-11T13:59:32.726Z,33.50
2017-09-11T14:00:32.707Z,53.40
2017-09-11T14:01:32.691Z,28.00
2017-09-11T14:02:32.717Z,32.40
2017-09-11T14:03:32.647Z,17.70
2017-09-11T14:04:32.621Z,9.50
2017-09-11T14:05:32.606Z,22.90
2017-09-11T14:06:32.586Z,22.40
2017-09-11T14:07:32.564Z,19.60
2017-09-11T14:08:32.540Z,14.40
2017-09-11T14:09:32.520Z,15.20
2017-09-11T14:10:32.499Z,14.30
2017-09-11T14:11:32.478Z,16.80
2017-09-11T14:12:32.455Z,16.60
2017-09-11T14:13:32.435Z,14.40
2017-09-11T14:14:32.407Z,13.70
2017-09-11T14:15:32.386Z,12.10
2017-09-11T14:16:32.362Z,18.00
2017-09-11T14:17:32.337Z,11.80
2017-09-11T14:18:32.314Z,17.80
2017-09-11T14:19:32.291Z,10.30
2017-09-11T14:20:32.267Z,13.90
2017-09-11T14:21:33.091Z,12.90
2017-09-11T14:22:32.358Z,15.00
2017-09-11T14:23:32.197Z,14.60
2017-09-11T14:24:32.170Z,22.00
2017-09-11T14:25:32.147Z,21.20
2017-09-11T14:26:32.121Z,16.90
2017-09-11T14:27:32.097Z,14.70
2017-09-11T14:28:32.072Z,18.20
2017-09-11T14:29:32.048Z,11.00
2017-09-11T14:30:32.022Z,11.70
2017-09-11T14:31:31.998Z,7.60
2017-09-11T14:32:31.971Z,12.00
2017-09-11T14:33:31.951Z,13.20
2017-09-11T14:34:31.921Z,8.90
2017-09-11T14:35:31.894Z,9.30
2017-09-11T14:36:31.869Z,11.40
2017-09-11T14:37:31.845Z,9.90
2017-09-11T14:38:31.818Z,8.50
2017-09-11T14:39:31.792Z,7.10
2017-09-11T14:40:31.768Z,8.60
2017-09-11T14:41:31.750Z,8.40
2017-09-11T14:42:31.715Z,6.30
2017-09-11T14:43:31.689Z,7.40
2017-09-11T14:44:32.191Z,9.40
2017-09-11T14:45:31.637Z,7.40
2017-09-11T14:46:31.695Z,10.00
2017-09-11T14:47:31.736Z,8.80
2017-09-11T14:48:31.557Z,11.70
2017-09-11T14:49:31.533Z,12.10
2017-09-11T14:50:31.506Z,13.00
2017-09-11T14:51:31.483Z,8.70
2017-09-11T14:52:31.453Z,11.80
2017-09-11T14:53:31.428Z,8.60
2017-09-11T14:54:31.401Z,9.70
2017-09-11T14:55:31.374Z,8.90
2017-09-11T14:56:31.353Z,8.40
2017-09-11T14:57:31.325Z,6.60
2017-09-11T14:58:31.296Z,6.10
2017-09-11T14:59:31.269Z,11.60
2017-09-11T15:00:31.244Z,7.10
2017-09-11T15:01:31.218Z,11.20
2017-09-11T15:02:31.189Z,8.50
2017-09-11T15:03:31.164Z,8.80
2017-09-11T15:04:31.138Z,9.30
2017-09-11T15:05:31.108Z,7.40
2017-09-11T15:06:31.085Z,10.80
2017-09-11T15:07:31.058Z,12.70
2017-09-11T15:08:31.031Z,10.80
2017-09-11T15:09:31.007Z,8.00
2017-09-11T15:10:30.979Z,9.20
2017-09-11T15:11:30.953Z,10.90
2017-09-11T15:12:30.927Z,7.40
2017-09-11T15:13:30.902Z,9.90
2017-09-11T15:14:30.875Z,7.90
2017-09-11T15:15:30.850Z,9.20
2017-09-11T15:16:30.824Z,9.00
2017-09-11T15:17:30.799Z,12.60
2017-09-11T15:18:30.773Z,9.30
2017-09-11T15:19:30.747Z,9.50
2017-09-11T15:20:30.718Z,7.90
2017-09-11T15:21:30.694Z,8.80
2017-09-11T15:22:30.665Z,7.30
2017-09-11T15:23:30.642Z,10.40
2017-09-11T15:24:30.618Z,10.00
2017-09-11T15:25:30.589Z,11.90
2017-09-11T15:26:30.566Z,11.30
2017-09-11T15:27:30.538Z,8.40
2017-09-11T15:28:30.512Z,10.80
2017-09-11T15:29:30.486Z,10.70
2017-09-11T15:30:30.459Z,8.00
2017-09-11T15:31:30.434Z,10.50
2017-09-11T15:32:30.405Z,9.00
2017-09-11T15:33:30.381Z,9.00
2017-09-11T15:34:30.354Z,9.50
2017-09-11T15:35:30.332Z,12.40
2017-09-11T15:36:30.299Z,10.30
2017-09-11T15:37:30.275Z,11.50
2017-09-11T15:38:30.248Z,6.20
2017-09-11T15:39:30.223Z,11.80
2017-09-11T15:40:30.196Z,12.50
2017-09-11T15:41:30.169Z,8.30
2017-09-11T15:42:30.143Z,11.20
2017-09-11T15:43:30.117Z,9.20
2017-09-11T15:44:30.090Z,10.70
2017-09-11T15:45:30.063Z,13.60
2017-09-11T15:46:30.038Z,16.10
2017-09-11T15:47:30.012Z,14.30
2017-09-11T15:48:29.985Z,11.50
2017-09-11T15:49:29.957Z,10.30
2017-09-11T15:50:29.931Z,13.70
2017-09-11T15:51:29.905Z,9.50
2017-09-11T15:52:29.875Z,12.50
2017-09-11T15:53:29.849Z,16.00
2017-09-11T15:54:29.823Z,12.20
2017-09-11T15:55:29.797Z,14.00
2017-09-11T15:56:29.769Z,10.40
2017-09-11T15:57:29.750Z,9.40
2017-09-11T15:58:29.719Z,13.60
2017-09-11T15:59:29.689Z,9.70
2017-09-11T16:00:29.660Z,9.00
2017-09-11T16:01:29.633Z,13.10
2017-09-11T16:02:29.607Z,13.80
2017-09-11T16:03:29.582Z,17.90
2017-09-11T16:04:29.553Z,8.30
2017-09-11T16:05:29.525Z,16.50
2017-09-11T16:06:29.499Z,7.20
2017-09-11T16:07:29.471Z,10.90
2017-09-11T16:08:29.444Z,8.70
2017-09-11T16:09:29.417Z,14.20
2017-09-11T16:10:29.390Z,12.10
2017-09-11T16:11:29.363Z,12.70
2017-09-11T16:12:29.333Z,13.30
2017-09-11T16:13:29.307Z,10.40
2017-09-11T16:14:29.280Z,10.00
2017-09-11T16:15:29.252Z,12.70
2017-09-11T16:16:29.224Z,11.10
2017-09-11T16:17:29.197Z,11.90
2017-09-11T16:18:29.170Z,16.40
2017-09-11T16:19:29.194Z,10.50
2017-09-11T16:20:29.116Z,16.50
2017-09-11T16:21:29.087Z,9.30
2017-09-11T16:22:29.196Z,12.50
2017-09-11T16:23:29.033Z,10.10
2017-09-11T16:24:29.004Z,13.30
2017-09-11T16:25:29.479Z,11.30
2017-09-11T16:26:28.949Z,18.60
2017-09-11T16:27:28.923Z,12.70
2017-09-11T16:28:28.893Z,12.70
2017-09-11T16:29:28.867Z,18.30
2017-09-11T16:30:28.838Z,10.70
2017-09-11T16:31:28.812Z,11.30
2017-09-11T16:32:28.782Z,11.50
2017-09-11T16:33:28.786Z,12.40
2017-09-11T16:34:28.727Z,12.10
2017-09-11T16:35:28.695Z,13.00
2017-09-11T16:36:28.671Z,13.50
2017-09-11T16:37:28.642Z,11.90
2017-09-11T16:38:28.617Z,15.60
2017-09-11T16:39:28.587Z,13.00
2017-09-11T16:40:28.558Z,12.60
2017-09-11T16:41:28.530Z,17.40
2017-09-11T16:42:28.503Z,11.20
2017-09-11T16:43:28.475Z,15.50
2017-09-11T16:44:28.447Z,10.50
2017-09-11T16:45:28.422Z,12.60
2017-09-11T16:46:28.392Z,12.60
2017-09-11T16:47:28.363Z,13.70
2017-09-11T16:48:28.334Z,11.90
2017-09-11T16:49:28.304Z,8.60
2017-09-11T16:50:28.281Z,12.00
2017-09-11T16:51:28.250Z,9.80
2017-09-11T16:52:28.223Z,9.90
2017-09-11T16:53:28.194Z,12.90
2017-09-11T16:54:28.165Z,16.10
2017-09-11T16:55:28.138Z,13.30
2017-09-11T16:56:28.109Z,12.60
2017-09-11T16:57:28.081Z,11.70
2017-09-11T16:58:28.053Z,14.00
2017-09-11T16:59:28.024Z,11.00
2017-09-11T17:00:27.995Z,13.30
2017-09-11T17:01:27.967Z,11.70
2017-09-11T17:02:27.939Z,11.40
2017-09-11T17:03:27.912Z,10.90
2017-09-11T17:04:27.881Z,16.60
2017-09-11T17:05:27.857Z,10.90
2017-09-11T17:06:27.826Z,11.80
2017-09-11T17:07:27.798Z,9.30
2017-09-11T17:08:27.775Z,10.70
2017-09-11T17:09:27.741Z,13.20
2017-09-11T17:10:27.712Z,11.30
2017-09-11T17:11:27.684Z,8.50
2017-09-11T17:12:27.655Z,10.90
2017-09-11T17:13:27.628Z,10.40
2017-09-11T17:14:27.599Z,7.80
2017-09-11T17:15:27.572Z,12.20
2017-09-11T17:16:27.632Z,11.20
2017-09-11T17:17:27.522Z,11.30
2017-09-11T17:18:27.485Z,15.30
2017-09-11T17:19:27.457Z,15.10
2017-09-11T17:20:27.428Z,10.10
2017-09-11T17:21:27.399Z,13.30
2017-09-11T17:22:27.368Z,7.30
2017-09-11T17:23:27.343Z,13.00
2017-09-11T17:24:27.313Z,9.70
2017-09-11T17:25:27.293Z,12.40
2017-09-11T17:26:27.257Z,10.30
2017-09-11T17:27:27.226Z,11.90
2017-09-11T17:28:27.213Z,18.00
2017-09-11T17:29:27.171Z,12.90
2017-09-11T17:30:27.143Z,39.20
2017-09-11T17:31:27.114Z,36.30
2017-09-11T17:32:27.084Z,15.40
2017-09-11T17:33:27.056Z,25.10
2017-09-11T17:34:27.027Z,21.60
2017-09-11T17:35:26.999Z,23.10
2017-09-11T17:36:26.971Z,15.70
2017-09-11T17:37:26.941Z,16.50
2017-09-11T17:38:26.910Z,20.30
2017-09-11T17:39:26.882Z,17.20
2017-09-11T17:40:26.852Z,20.20
2017-09-11T17:41:26.824Z,17.80
2017-09-11T17:42:26.794Z,18.00
2017-09-11T17:43:26.764Z,16.00
2017-09-11T17:44:26.735Z,21.00
2017-09-11T17:45:27.183Z,29.70
2017-09-11T17:46:26.674Z,17.40
2017-09-11T17:47:26.643Z,35.00
2017-09-11T17:48:27.273Z,27.30
2017-09-11T17:49:26.585Z,32.40
2017-09-11T17:50:26.554Z,35.30
2017-09-11T17:51:26.556Z,45.00
2017-09-11T17:52:26.497Z,32.10
2017-09-11T17:53:26.475Z,29.30
2017-09-11T17:54:26.434Z,23.40
2017-09-11T17:55:26.403Z,29.20
2017-09-11T17:56:26.376Z,34.40
2017-09-11T17:57:26.379Z,20.10
2017-09-11T17:58:26.312Z,30.30
2017-09-11T17:59:26.381Z,21.90
2017-09-11T18:00:26.250Z,26.30
2017-09-11T18:01:26.373Z,21.00
2017-09-11T18:02:26.193Z,22.80
2017-09-11T18:03:26.163Z,27.40
2017-09-11T18:04:26.130Z,31.20
2017-09-11T18:05:26.101Z,30.90
2017-09-11T18:06:26.070Z,29.30
2017-09-11T18:07:26.040Z,43.10
2017-09-11T18:08:26.010Z,62.70
2017-09-11T18:09:25.979Z,30.50
2017-09-11T18:10:25.949Z,28.60
2017-09-11T18:11:25.920Z,25.00
2017-09-11T18:12:25.888Z,30.20
2017-09-11T18:13:25.860Z,30.20
2017-09-11T18:14:25.829Z,26.70
2017-09-11T18:15:25.798Z,38.70
2017-09-11T18:16:25.775Z,35.90
2017-09-11T18:17:25.739Z,28.90
2017-09-11T18:18:25.709Z,30.10
2017-09-11T18:19:25.680Z,28.70
2017-09-11T18:20:25.648Z,27.60
2017-09-11T18:21:25.618Z,23.80
2017-09-11T18:22:25.587Z,20.30
2017-09-11T18:23:25.577Z,32.90
2017-09-11T18:24:25.525Z,26.70
2017-09-11T18:25:25.496Z,23.10
2017-09-11T18:26:25.467Z,31.80
2017-09-11T18:27:25.439Z,32.30
2017-09-11T18:28:25.407Z,20.70
2017-09-11T18:29:25.379Z,38.90
2017-09-11T18:30:25.352Z,25.60
2017-09-11T18:31:25.325Z,30.20
2017-09-11T18:32:25.289Z,34.00
2017-09-11T18:33:25.275Z,34.80
2017-09-11T18:34:25.230Z,30.20
2017-09-11T18:35:25.198Z,34.10
2017-09-11T18:36:25.168Z,30.10
2017-09-11T18:37:25.139Z,33.60
2017-09-11T18:38:25.110Z,30.70
2017-09-11T18:39:25.078Z,32.70
2017-09-11T18:40:25.053Z,32.90
2017-09-11T18:41:25.138Z,33.00
2017-09-11T18:42:24.988Z,40.50
2017-09-11T18:43:24.990Z,33.70
2017-09-11T18:44:24.928Z,25.90
2017-09-11T18:45:24.898Z,26.00
2017-09-11T18:46:24.869Z,26.20
2017-09-11T18:47:24.841Z,25.80
2017-09-11T18:48:24.809Z,29.30
2017-09-11T18:49:24.779Z,23.90
2017-09-11T18:50:24.748Z,20.70
2017-09-11T18:51:24.719Z,21.70
2017-09-11T18:52:24.691Z,27.10
2017-09-11T18:53:24.660Z,21.20
2017-09-11T18:54:24.632Z,32.60
2017-09-11T18:55:24.600Z,24.20
2017-09-11T18:56:24.568Z,19.90
2017-09-11T18:57:24.540Z,21.20
2017-09-11T18:58:24.507Z,21.00
2017-09-11T18:59:24.479Z,16.80
2017-09-11T19:00:24.452Z,16.70
2017-09-11T19:01:24.420Z,23.40
2017-09-11T19:02:24.390Z,12.60
2017-09-11T19:03:24.362Z,20.20
2017-09-11T19:04:24.329Z,23.70
2017-09-11T19:05:24.299Z,29.00
2017-09-11T19:06:24.270Z,19.30
2017-09-11T19:07:24.240Z,38.50
2017-09-11T19:08:24.209Z,34.20
2017-09-11T19:09:24.178Z,31.50
2017-09-11T19:10:24.148Z,29.10
2017-09-11T19:11:24.120Z,22.80
2017-09-11T19:12:24.088Z,43.70
2017-09-11T19:13:24.061Z,25.90
2017-09-11T19:14:24.028Z,32.40
2017-09-11T19:15:24.004Z,21.10
2017-09-11T19:16:23.967Z,25.60
2017-09-11T19:17:23.938Z,31.30
2017-09-11T19:18:23.909Z,23.70
2017-09-11T19:19:23.878Z,30.90
2017-09-11T19:20:23.846Z,27.80
2017-09-11T19:21:23.817Z,30.80
2017-09-11T19:22:23.786Z,20.70
2017-09-11T19:23:23.757Z,22.70
2017-09-11T19:24:23.724Z,30.90
2017-09-11T19:25:23.698Z,24.10
2017-09-11T19:26:23.667Z,21.60
2017-09-11T19:27:23.635Z,26.10
2017-09-11T19:28:23.603Z,36.50
2017-09-11T19:29:23.575Z,33.40
2017-09-11T19:30:23.544Z,32.00
2017-09-11T19:31:23.514Z,38.50
2017-09-11T19:32:23.482Z,26.80
2017-09-11T19:33:23.452Z,31.70
2017-09-11T19:34:23.423Z,49.00
2017-09-11T19:35:23.393Z,48.00
2017-09-11T19:36:23.362Z,32.60
2017-09-11T19:37:23.332Z,32.60
2017-09-11T19:38:23.304Z,27.90
2017-09-11T19:39:23.272Z,34.30
2017-09-11T19:40:23.243Z,23.60
2017-09-11T19:41:23.210Z,41.70
2017-09-11T19:42:23.185Z,28.40
2017-09-11T19:43:23.151Z,29.40
2017-09-11T19:44:23.119Z,25.90
2017-09-11T19:45:23.090Z,29.70
2017-09-11T19:46:23.064Z,22.70
2017-09-11T19:47:23.030Z,24.50
2017-09-11T19:48:23.000Z,25.80
2017-09-11T19:49:22.970Z,30.10
2017-09-11T19:50:22.939Z,23.90
2017-09-11T19:51:22.909Z,23.70
2017-09-11T19:52:22.877Z,22.90
2017-09-11T19:53:22.847Z,25.00
2017-09-11T19:54:22.817Z,25.10
2017-09-11T19:55:22.787Z,21.80
2017-09-11T19:56:22.756Z,40.60
2017-09-11T19:57:22.727Z,57.60
2017-09-11T19:58:22.696Z,68.40
2017-09-11T19:59:22.666Z,36.40
2017-09-11T20:00:22.635Z,81.10
2017-09-11T20:01:22.605Z,49.60
2017-09-11T20:02:22.574Z,49.30
2017-09-11T20:03:22.986Z,36.80
2017-09-11T20:04:22.989Z,45.90
2017-09-11T20:05:22.483Z,24.40
2017-09-11T20:06:22.454Z,25.80
2017-09-11T20:07:22.423Z,34.30
2017-09-11T20:08:22.392Z,40.50
2017-09-11T20:09:22.364Z,22.30
2017-09-11T20:10:22.333Z,23.70
2017-09-11T20:11:22.301Z,31.30
2017-09-11T20:12:22.271Z,18.00
2017-09-11T20:13:22.240Z,31.00
2017-09-11T20:14:22.210Z,20.40
2017-09-11T20:15:22.183Z,19.40
2017-09-11T20:16:22.151Z,21.30
2017-09-11T20:17:22.195Z,23.40
2017-09-11T20:18:22.103Z,19.80
2017-09-11T20:19:22.060Z,16.50
2017-09-11T20:20:22.195Z,50.40
2017-09-11T20:21:21.999Z,16.60
2017-09-11T20:22:21.967Z,17.40
2017-09-11T20:23:21.937Z,33.50
2017-09-11T20:24:21.907Z,30.80
2017-09-11T20:25:21.876Z,15.10
2017-09-11T20:26:21.845Z,18.80
2017-09-11T20:27:21.817Z,18.40
2017-09-11T20:28:21.784Z,19.30
2017-09-11T20:29:21.754Z,15.50
2017-09-11T20:30:21.725Z,15.20
2017-09-11T20:31:21.695Z,13.60
2017-09-11T20:32:21.663Z,15.50
2017-09-11T20:33:21.633Z,12.60
2017-09-11T20:34:21.603Z,40.70
2017-09-11T20:35:21.576Z,12.10
2017-09-11T20:36:21.542Z,15.30
2017-09-11T20:37:21.514Z,21.20
2017-09-11T20:38:21.482Z,15.40
2017-09-11T20:39:21.456Z,14.90
2017-09-11T20:40:21.423Z,14.80
2017-09-11T20:41:21.395Z,12.00
2017-09-11T20:42:21.361Z,13.70
2017-09-11T20:43:21.330Z,11.50
2017-09-11T20:44:21.300Z,15.10
2017-09-11T20:45:21.268Z,10.30
2017-09-11T20:46:21.239Z,15.50
2017-09-11T20:47:21.208Z,16.80
2017-09-11T20:48:21.176Z,16.00
2017-09-11T20:49:21.146Z,14.90
2017-09-11T20:50:21.117Z,10.20
2017-09-11T20:51:21.086Z,14.30
2017-09-11T20:52:21.053Z,11.60
2017-09-11T20:53:21.023Z,15.80
2017-09-11T20:54:20.994Z,21.10
2017-09-11T20:55:20.964Z,9.70
2017-09-11T20:56:20.932Z,13.50
2017-09-11T20:57:20.901Z,12.60
2017-09-11T20:58:20.873Z,13.60
2017-09-11T20:59:20.841Z,13.80
2017-09-11T21:00:20.811Z,13.00
2017-09-11T21:01:20.781Z,12.70